Time;durP1;ratioP1;P1;durP2;ratioP2;P2;SDS_P1;SDS_P2;PMS_P1;PMS_P2;Temp;Humidity;BMP_temperature;BMP_pressure;BME280_temperature;BME280_humidity;BME280_pressure;Samples;Min_cycle;Max_cycle;Signal;HPM_P1;HPM_P2
2021/03/28 00:00:00;;;;;;;;;;;;;;;;;;5030513;28;1474;-60
2021/03/28 00:02:32;;;;;;;;;;;;;;;;;;5030016;28;824;-60
2021/03/28 00:05:06;;;;;;;;;;;;;;;;;;5030357;28;882;-60
2021/03/28 00:07:52;;;;;;;;;;;;;;;;;;5029522;28;1165;-60
2021/03/28 00:10:30;;;;;;;;;;;;;;;;;;5029209;28;1248;-60
2021/03/28 00:13:05;;;;;;;;;;;;;;;;;;5029436;28;836;-60
2021/03/28 00:15:53;;;;;;;;;;;;;;;;;;5029372;28;1991;-60
2021/03/28 00:18:18;;;;;;;;;;;;;;;;;;5029970;28;1319;-60
2021/03/28 00:20:45;;;;;;;;;;;;;;;;;;5030044;28;1150;-60
2021/03/28 00:23:22;;;;;;;;;;;;;;;;;;5029625;28;1352;-60
2021/03/28 00:25:47;;;;;;;;;;;;;;;;;;5029104;28;871;-60
2021/03/28 00:28:27;;;;;;;;;;;;;;;;;;5029738;28;879;-60
2021/03/28 00:31:07;;;;;;;;;;;;;;;;;;5029219;28;883;-60
2021/03/28 00:33:33;;;;;;;;;;;;;;;;;;5028737;28;786;-60
2021/03/28 00:35:59;;;;;;;;;;;;;;;;;;5029235;28;827;-60
2021/03/28 00:38:27;;;;;;;;;;;;;;;;;;5029554;28;835;-60
2021/03/28 00:41:17;;;;;;;;;;;;;;;;;;5028806;28;943;-60
2021/03/28 00:43:46;;;;;;;;;;;;;;;;;;5030442;28;835;-60
2021/03/28 00:46:21;;;;;;;;;;;;;;;;;;5012096;28;1176;-60
2021/03/28 00:48:53;;;;;;;;;;;;;;;;;;5029841;28;879;-61
2021/03/28 00:51:20;;;;;;;;;;;;;;;;;;5028858;28;899;-60
2021/03/28 00:53:58;;;;;;;;;;;;;;;;;;5029161;28;1898;-60
2021/03/28 00:56:37;;;;;;;;;;;;;;;;;;5029167;28;820;-61
2021/03/28 00:59:06;;;;;;;;;;;;;;;;;;5028439;28;926;-60
2021/03/28 01:01:52;;;;;;;;;;;;;;;;;;5028510;28;903;-60
2021/03/28 01:04:37;;;;;;;;;;;;;;;;;;5029642;28;851;-61
2021/03/28 01:07:12;;;;;;;;;;;;;;;;;;5028156;28;2025;-60
2021/03/28 01:09:57;;;;;;;;;;;;;;;;;;5028771;28;848;-61
2021/03/28 01:12:41;;;;;;;;;;;;;;;;;;5029002;28;998;-60
2021/03/28 01:15:21;;;;;;;;;;;;;;;;;;5023069;28;1894;-60
2021/03/28 01:17:53;;;;;;;;;;;;;;;;;;5008559;28;930;-60
2021/03/28 01:20:23;;;;;;;;;;;;;;;;;;5009051;28;843;-61
2021/03/28 01:22:52;;;;;;;;;;;;;;;;;;5008804;28;902;-61
2021/03/28 01:25:31;;;;;;;;;;;;;;;;;;5008584;28;668;-60
2021/03/28 01:27:58;;;;;;;;;;;;;;;;;;5008728;28;941;-61
2021/03/28 01:30:44;;;;;;;;;;;;;;;;;;5008554;28;974;-60
2021/03/28 01:33:13;;;;;;;;;;;;;;;;;;5008094;28;1206;-61
2021/03/28 01:35:45;;;;;;;;;;;;;;;;;;5008476;28;1894;-61
2021/03/28 01:38:23;;;;;;;;;;;;;;;;;;5008614;28;943;-61
2021/03/28 01:41:00;;;;;;;;;;;;;;;;;;5008050;28;839;-61
2021/03/28 01:43:44;;;;;;;;;;;;;;;;;;5010581;28;871;-61
2021/03/28 01:46:21;;;;;;;;;;;;;;;;;;5008381;28;927;-61
2021/03/28 01:48:46;;;;;;;;;;;;;;;;;;5008369;28;835;-61
2021/03/28 01:51:31;;;;;;;;;;;;;;;;;;5008761;28;867;-61
2021/03/28 01:54:14;;;;;;;;;;;;;;;;;;5019170;28;1893;-61
2021/03/28 01:57:03;;;;;;;;;;;;;;;;;;5028025;28;867;-60
2021/03/28 01:59:28;;;;;;;;;;;;;;;;;;5027860;28;807;-60
2021/03/28 02:02:21;;;;;;;;;;;;;;;;;;5028255;28;934;-60
2021/03/28 02:05:05;;;;;;;;;;;;;;;;;;5028606;28;922;-60
2021/03/28 02:07:48;;;;;;;;;;;;;;;;;;5027757;28;819;-60
2021/03/28 02:10:16;;;;;;;;;;;;;;;;;;5028750;28;895;-60
2021/03/28 02:12:48;;;;;;;;;;;;;;;;;;5028313;28;851;-60
2021/03/28 02:15:32;;;;;;;;;;;;;;;;;;5028330;28;1910;-60
2021/03/28 02:18:15;;;;;;;;;;;;;;;;;;5027465;28;985;-60
2021/03/28 02:20:45;;;;;;;;;;;;;;;;;;5024211;28;1075;-60
2021/03/28 02:23:17;;;;;;;;;;;;;;;;;;5027747;28;843;-60
2021/03/28 02:25:46;;;;;;;;;;;;;;;;;;5043448;28;894;-60
2021/03/28 02:28:11;;;;;;;;;;;;;;;;;;5026569;28;894;-60
2021/03/28 02:30:43;;;;;;;;;;;;;;;;;;5027132;28;894;-60
2021/03/28 02:33:14;;;;;;;;;;;;;;;;;;5027332;28;894;-60
2021/03/28 02:35:46;;;;;;;;;;;;;;;;;;5041975;28;1969;-59
2021/03/28 02:38:30;;;;;;;;;;;;;;;;;;5026892;28;840;-60
2021/03/28 02:41:15;;;;;;;;;;;;;;;;;;5026943;28;816;-60
2021/03/28 02:43:49;;;;;;;;;;;;;;;;;;5028922;28;906;-60
2021/03/28 02:46:33;;;;;;;;;;;;;;;;;;5027986;28;823;-60
2021/03/28 02:49:07;;;;;;;;;;;;;;;;;;5027160;28;827;-60
2021/03/28 02:51:58;;;;;;;;;;;;;;;;;;5027222;28;875;-60
2021/03/28 02:54:50;;;;;;;;;;;;;;;;;;5012145;28;1960;-60
2021/03/28 02:57:25;;;;;;;;;;;;;;;;;;5014752;28;1381;-60
2021/03/28 02:59:50;;;;;;;;;;;;;;;;;;5016186;28;890;-60
2021/03/28 03:02:18;;;;;;;;;;;;;;;;;;5027731;28;1002;-60
2021/03/28 03:04:55;;;;;;;;;;;;;;;;;;5028011;28;858;-59
2021/03/28 03:07:21;;;;;;;;;;;;;;;;;;5027428;28;811;-60
2021/03/28 03:09:52;;;;;;;;;;;;;;;;;;5027881;28;946;-60
2021/03/28 03:12:36;;;;;;;;;;;;;;;;;;5027132;28;891;-61
2021/03/28 03:15:13;;;;;;;;;;;;;;;;;;5027071;28;1907;-59
2021/03/28 03:17:58;;;;;;;;;;;;;;;;;;5026962;28;851;-60
2021/03/28 03:20:32;;;;;;;;;;;;;;;;;;5026650;28;844;-60
2021/03/28 03:22:57;;;;;;;;;;;;;;;;;;5027675;28;935;-60
2021/03/28 03:25:30;;;;;;;;;;;;;;;;;;5030452;28;812;-59
2021/03/28 03:28:08;;;;;;;;;;;;;;;;;;5029948;28;1017;-60
2021/03/28 03:30:41;;;;;;;;;;;;;;;;;;5030249;28;843;-60
2021/03/28 03:33:39;;;;;;;;;;;;;;;;;;5030415;28;906;-59
2021/03/28 03:36:10;;;;;;;;;;;;;;;;;;5038968;28;1965;-60
2021/03/28 03:38:39;;;;;;;;;;;;;;;;;;5029873;28;947;-60
2021/03/28 03:41:18;;;;;;;;;;;;;;;;;;5030238;28;902;-60
2021/03/28 03:43:52;;;;;;;;;;;;;;;;;;5030740;28;796;-60
2021/03/28 03:46:36;;;;;;;;;;;;;;;;;;5032184;28;878;-60
2021/03/28 03:49:17;;;;;;;;;;;;;;;;;;5030429;28;899;-59
2021/03/28 03:51:57;;;;;;;;;;;;;;;;;;5030703;28;835;-60
2021/03/28 03:54:50;;;;;;;;;;;;;;;;;;5029718;28;1894;-60
2021/03/28 03:57:15;;;;;;;;;;;;;;;;;;5031464;28;840;-59
2021/03/28 03:59:43;;;;;;;;;;;;;;;;;;5029988;28;930;-60
2021/03/28 04:02:17;;;;;;;;;;;;;;;;;;5030197;28;919;-60
2021/03/28 04:04:43;;;;;;;;;;;;;;;;;;5031027;28;910;-60
2021/03/28 04:07:34;;;;;;;;;;;;;;;;;;5029428;28;946;-60
2021/03/28 04:10:06;;;;;;;;;;;;;;;;;;5027207;28;978;-60
2021/03/28 04:12:42;;;;;;;;;;;;;;;;;;5026136;28;1098;-60
2021/03/28 04:15:20;;;;;;;;;;;;;;;;;;5029481;28;1975;-60
2021/03/28 04:18:04;;;;;;;;;;;;;;;;;;5030089;28;820;-60
2021/03/28 04:20:45;;;;;;;;;;;;;;;;;;5029381;28;804;-60
2021/03/28 04:23:10;;;;;;;;;;;;;;;;;;5028937;28;911;-60
2021/03/28 04:26:05;;;;;;;;;;;;;;;;;;5029462;28;874;-59
2021/03/28 04:28:38;;;;;;;;;;;;;;;;;;4992282;28;1159;-60
2021/03/28 04:31:25;;;;;;;;;;;;;;;;;;5030041;28;788;-60
2021/03/28 04:33:56;;;;;;;;;;;;;;;;;;5029417;28;1889;-60
2021/03/28 04:36:40;;;;;;;;;;;;;;;;;;5028995;28;863;-60
2021/03/28 04:39:17;;;;;;;;;;;;;;;;;;5029465;28;848;-60
2021/03/28 04:42:02;;;;;;;;;;;;;;;;;;5029618;28;823;-59
2021/03/28 04:44:36;;;;;;;;;;;;;;;;;;5028865;28;832;-60
2021/03/28 04:47:10;;;;;;;;;;;;;;;;;;5032539;28;899;-60
2021/03/28 04:49:55;;;;;;;;;;;;;;;;;;5029469;28;839;-60
2021/03/28 04:52:38;;;;;;;;;;;;;;;;;;5028788;28;811;-60
2021/03/28 04:55:19;;;;;;;;;;;;;;;;;;4989807;28;1955;-61
2021/03/28 04:57:44;;;;;;;;;;;;;;;;;;4990417;28;827;-60
2021/03/28 05:00:26;;;;;;;;;;;;;;;;;;5000647;28;942;-60
2021/03/28 05:03:10;;;;;;;;;;;;;;;;;;5008983;28;926;-60
2021/03/28 05:05:35;;;;;;;;;;;;;;;;;;5009098;28;899;-59
2021/03/28 05:08:19;;;;;;;;;;;;;;;;;;5008870;28;879;-60
2021/03/28 05:10:57;;;;;;;;;;;;;;;;;;5010027;28;938;-60
2021/03/28 05:13:37;;;;;;;;;;;;;;;;;;5008985;28;820;-59
2021/03/28 05:16:18;;;;;;;;;;;;;;;;;;5012206;28;1931;-60
2021/03/28 05:19:02;;;;;;;;;;;;;;;;;;5028347;28;831;-59
2021/03/28 05:21:46;;;;;;;;;;;;;;;;;;5028809;28;855;-60
2021/03/28 05:24:49;;;;;;;;;;;;;;;;;;5028472;28;914;-60
2021/03/28 05:27:27;;;;;;;;;;;;;;;;;;5007085;28;1382;-60
2021/03/28 05:30:04;;;;;;;;;;;;;;;;;;5006379;28;943;-60
2021/03/28 05:32:35;;;;;;;;;;;;;;;;;;5019615;28;1007;-60
2021/03/28 05:35:21;;;;;;;;;;;;;;;;;;5028681;28;1961;-60
2021/03/28 05:37:46;;;;;;;;;;;;;;;;;;5025481;28;1509;-60
2021/03/28 05:40:20;;;;;;;;;;;;;;;;;;5028244;28;870;-60
2021/03/28 05:43:04;;;;;;;;;;;;;;;;;;5029198;28;859;-61
2021/03/28 05:45:43;;;;;;;;;;;;;;;;;;5028053;28;824;-60
2021/03/28 05:48:27;;;;;;;;;;;;;;;;;;5027765;28;910;-60
2021/03/28 05:50:52;;;;;;;;;;;;;;;;;;5028019;28;835;-60
2021/03/28 05:53:24;;;;;;;;;;;;;;;;;;5028092;28;1095;-60
2021/03/28 05:56:06;;;;;;;;;;;;;;;;;;5027603;28;1961;-60
2021/03/28 05:58:50;;;;;;;;;;;;;;;;;;5027370;28;840;-60
2021/03/28 06:01:16;;;;;;;;;;;;;;;;;;5027476;28;1172;-60
2021/03/28 06:03:50;;;;;;;;;;;;;;;;;;5027298;28;843;-60
2021/03/28 06:06:25;;;;;;;;;;;;;;;;;;5028099;28;903;-60
2021/03/28 06:09:09;;;;;;;;;;;;;;;;;;5027572;28;899;-60
2021/03/28 06:11:35;;;;;;;;;;;;;;;;;;5027495;28;636;-60
2021/03/28 06:14:12;;;;;;;;;;;;;;;;;;5027393;28;1977;-60
2021/03/28 06:16:56;;;;;;;;;;;;;;;;;;5026108;28;1083;-60
2021/03/28 06:19:40;;;;;;;;;;;;;;;;;;5007456;28;836;-60
2021/03/28 06:22:24;;;;;;;;;;;;;;;;;;5007644;28;832;-60
2021/03/28 06:25:08;;;;;;;;;;;;;;;;;;5007511;28;827;-61
2021/03/28 06:27:52;;;;;;;;;;;;;;;;;;5007782;28;879;-60
2021/03/28 06:30:47;;;;;;;;;;;;;;;;;;5007819;28;890;-60
2021/03/28 06:33:31;;;;;;;;;;;;;;;;;;5007950;28;899;-60
2021/03/28 06:36:06;;;;;;;;;;;;;;;;;;5007486;28;1930;-60
2021/03/28 06:38:52;;;;;;;;;;;;;;;;;;5006929;28;824;-60
2021/03/28 06:41:17;;;;;;;;;;;;;;;;;;5026951;28;1064;-61
2021/03/28 06:43:55;;;;;;;;;;;;;;;;;;5027754;28;1182;-60
2021/03/28 06:46:35;;;;;;;;;;;;;;;;;;5026161;28;1186;-60
2021/03/28 06:49:13;;;;;;;;;;;;;;;;;;5026505;28;1158;-60
2021/03/28 06:51:56;;;;;;;;;;;;;;;;;;5018076;28;1406;-60
2021/03/28 06:54:40;;;;;;;;;;;;;;;;;;5026286;28;1926;-60
2021/03/28 06:57:33;;;;;;;;;;;;;;;;;;5024956;28;922;-60
2021/03/28 07:00:17;;;;;;;;;;;;;;;;;;5029565;28;1284;-61
2021/03/28 07:03:01;;;;;;;;;;;;;;;;;;5039206;28;1316;-61
2021/03/28 07:05:43;;;;;;;;;;;;;;;;;;5050833;28;887;-60
2021/03/28 07:08:14;;;;;;;;;;;;;;;;;;5050093;28;907;-61
2021/03/28 07:10:40;;;;;;;;;;;;;;;;;;5050653;28;835;-61
2021/03/28 07:13:24;;;;;;;;;;;;;;;;;;5045717;28;1191;-61
2021/03/28 07:15:58;;;;;;;;;;;;;;;;;;5038391;28;1946;-60
2021/03/28 07:18:30;;;;;;;;;;;;;;;;;;5031159;28;1192;-61
2021/03/28 07:21:18;;;;;;;;;;;;;;;;;;5030253;28;1415;-60
2021/03/28 07:24:02;;;;;;;;;;;;;;;;;;5030966;28;1173;-61
2021/03/28 07:26:43;;;;;;;;;;;;;;;;;;5016676;28;1148;-60
2021/03/28 07:29:28;;;;;;;;;;;;;;;;;;5032697;28;1120;-60
2021/03/28 07:31:59;;;;;;;;;;;;;;;;;;5028698;28;800;-59
2021/03/28 07:34:43;;;;;;;;;;;;;;;;;;5030558;28;1981;-60
2021/03/28 07:37:30;;;;;;;;;;;;;;;;;;5030118;28;836;-61
2021/03/28 07:40:05;;;;;;;;;;;;;;;;;;5030812;28;847;-61
2021/03/28 07:42:33;;;;;;;;;;;;;;;;;;5031165;28;1215;-61
2021/03/28 07:44:58;;;;;;;;;;;;;;;;;;5037828;28;1140;-60
2021/03/28 07:47:24;;;;;;;;;;;;;;;;;;5050228;28;882;-61
2021/03/28 07:49:49;;;;;;;;;;;;;;;;;;5050271;28;885;-61
2021/03/28 07:52:33;;;;;;;;;;;;;;;;;;5031197;28;1418;-61
2021/03/28 07:55:19;;;;;;;;;;;;;;;;;;5029492;28;1942;-61
2021/03/28 07:58:03;;;;;;;;;;;;;;;;;;5030435;28;870;-62
2021/03/28 08:00:47;;;;;;;;;;;;;;;;;;5029794;28;903;-63
2021/03/28 08:03:31;;;;;;;;;;;;;;;;;;5029729;28;933;-62
2021/03/28 08:06:05;;;;;;;;;;;;;;;;;;5031302;28;1245;-62
2021/03/28 08:08:49;;;;;;;;;;;;;;;;;;5064865;28;1271;-63
2021/03/28 08:11:24;;;;;;;;;;;;;;;;;;5048973;28;792;-62
2021/03/28 08:13:58;;;;;;;;;;;;;;;;;;5030483;28;1367;-62
2021/03/28 08:16:32;;;;;;;;;;;;;;;;;;5028523;28;915;-63
2021/03/28 08:19:05;;;;;;;;;;;;;;;;;;5028389;28;1114;-63
2021/03/28 08:21:31;;;;;;;;;;;;;;;;;;5029386;28;899;-62
2021/03/28 08:24:23;;;;;;;;;;;;;;;;;;5043579;28;1216;-61
2021/03/28 08:26:54;;;;;;;;;;;;;;;;;;5012662;28;1588;-62
2021/03/28 08:29:38;;;;;;;;;;;;;;;;;;5026908;28;844;-62
2021/03/28 08:32:22;;;;;;;;;;;;;;;;;;5028596;28;903;-59
2021/03/28 08:34:57;;;;;;;;;;;;;;;;;;5029126;28;1979;-61
2021/03/28 08:37:22;;;;;;;;;;;;;;;;;;5028868;28;855;-63
2021/03/28 08:39:50;;;;;;;;;;;;;;;;;;5030084;28;905;-61
2021/03/28 08:42:34;;;;;;;;;;;;;;;;;;5029599;28;1368;-62
2021/03/28 08:45:18;;;;;;;;;;;;;;;;;;5029328;28;848;-61
2021/03/28 08:48:02;;;;;;;;;;;;;;;;;;5030547;28;891;-61
2021/03/28 08:50:30;;;;;;;;;;;;;;;;;;5028760;28;1473;-60
2021/03/28 08:53:35;;;;;;;;;;;;;;;;;;5029223;28;1206;-60
2021/03/28 08:56:12;;;;;;;;;;;;;;;;;;4986045;28;1890;-59
2021/03/28 08:58:49;;;;;;;;;;;;;;;;;;4985303;28;895;-60
2021/03/28 09:01:18;;;;;;;;;;;;;;;;;;5013216;28;1012;-60
2021/03/28 09:03:56;;;;;;;;;;;;;;;;;;5029388;28;839;-60
2021/03/28 09:06:40;;;;;;;;;;;;;;;;;;5022712;28;927;-62
2021/03/28 09:09:15;;;;;;;;;;;;;;;;;;5029245;28;885;-62
2021/03/28 09:12:01;;;;;;;;;;;;;;;;;;5033620;28;1203;-61
2021/03/28 09:14:40;;;;;;;;;;;;;;;;;;5034037;28;1909;-61
2021/03/28 09:17:11;;;;;;;;;;;;;;;;;;5034821;28;2096;-60
2021/03/28 09:19:49;;;;;;;;;;;;;;;;;;5030884;28;1560;-61
2021/03/28 09:22:23;;;;;;;;;;;;;;;;;;5030110;28;1216;-60
2021/03/28 09:25:09;;;;;;;;;;;;;;;;;;5029021;28;958;-60
2021/03/28 09:27:57;;;;;;;;;;;;;;;;;;5028590;28;907;-60
2021/03/28 09:30:25;;;;;;;;;;;;;;;;;;5028156;28;1359;-60
2021/03/28 09:32:50;;;;;;;;;;;;;;;;;;5028837;28;846;-60
2021/03/28 09:35:25;;;;;;;;;;;;;;;;;;5028877;28;1965;-60
2021/03/28 09:37:59;;;;;;;;;;;;;;;;;;5026956;28;2327;-60
2021/03/28 09:40:24;;;;;;;;;;;;;;;;;;5028489;28;949;-59
2021/03/28 09:43:08;;;;;;;;;;;;;;;;;;5027591;28;1358;-60
2021/03/28 09:45:51;;;;;;;;;;;;;;;;;;5027952;28;907;-60
2021/03/28 09:48:26;;;;;;;;;;;;;;;;;;5028970;28;874;-61
2021/03/28 09:51:03;;;;;;;;;;;;;;;;;;5026812;28;1156;-59
2021/03/28 09:53:43;;;;;;;;;;;;;;;;;;5027806;28;1083;-59
2021/03/28 09:56:08;;;;;;;;;;;;;;;;;;5027316;28;1898;-60
2021/03/28 09:58:37;;;;;;;;;;;;;;;;;;5027796;28;1215;-60
2021/03/28 10:01:22;;;;;;;;;;;;;;;;;;5043741;28;1719;-61
2021/03/28 10:04:04;;;;;;;;;;;;;;;;;;5026747;28;1112;-62
2021/03/28 10:06:30;;;;;;;;;;;;;;;;;;5023997;28;819;-60
2021/03/28 10:09:11;;;;;;;;;;;;;;;;;;5008019;28;864;-62
2021/03/28 10:11:49;;;;;;;;;;;;;;;;;;5014654;28;1199;-66
2021/03/28 10:14:14;;;;;;;;;;;;;;;;;;5027596;28;1897;-62
2021/03/28 10:16:58;;;;;;;;;;;;;;;;;;5023049;28;1245;-67
2021/03/28 10:19:34;;;;;;;;;;;;;;;;;;5014510;28;1611;-62
2021/03/28 10:22:18;;;;;;;;;;;;;;;;;;5011706;28;1826;-62
2021/03/28 10:24:43;;;;;;;;;;;;;;;;;;5015621;28;1081;-63
2021/03/28 10:27:27;;;;;;;;;;;;;;;;;;5033647;28;1147;-58
2021/03/28 10:29:55;;;;;;;;;;;;;;;;;;5035630;28;1204;-58
2021/03/28 10:32:39;;;;;;;;;;;;;;;;;;5027788;28;1377;-61
2021/03/28 10:35:23;;;;;;;;;;;;;;;;;;5027022;28;1965;-62
2021/03/28 10:37:52;;;;;;;;;;;;;;;;;;5027187;28;835;-65
2021/03/28 10:40:26;;;;;;;;;;;;;;;;;;5027724;28;818;-61
2021/03/28 10:43:01;;;;;;;;;;;;;;;;;;5028537;28;1218;-61
2021/03/28 10:45:33;;;;;;;;;;;;;;;;;;5040092;28;1132;-59
2021/03/28 10:48:17;;;;;;;;;;;;;;;;;;5029928;28;1407;-61
2021/03/28 10:50:48;;;;;;;;;;;;;;;;;;5030614;28;1262;-60
2021/03/28 10:53:32;;;;;;;;;;;;;;;;;;5036413;28;1091;-60
2021/03/28 10:55:58;;;;;;;;;;;;;;;;;;5033819;28;1886;-61
2021/03/28 10:58:38;;;;;;;;;;;;;;;;;;5026657;28;1225;-61
2021/03/28 11:01:13;;;;;;;;;;;;;;;;;;5031864;28;1388;-61
2021/03/28 11:03:57;;;;;;;;;;;;;;;;;;5026791;28;876;-61
2021/03/28 11:06:22;;;;;;;;;;;;;;;;;;5026809;28;902;-59
2021/03/28 11:08:51;;;;;;;;;;;;;;;;;;5027383;28;855;-60
2021/03/28 11:11:35;;;;;;;;;;;;;;;;;;5028356;28;835;-58
2021/03/28 11:14:23;;;;;;;;;;;;;;;;;;5044498;28;1906;-59
2021/03/28 11:16:48;;;;;;;;;;;;;;;;;;5036771;28;1319;-61
2021/03/28 11:19:32;;;;;;;;;;;;;;;;;;5046908;28;1139;-59
2021/03/28 11:22:16;;;;;;;;;;;;;;;;;;5046565;28;835;-58
2021/03/28 11:24:44;;;;;;;;;;;;;;;;;;5046308;28;1174;-59
2021/03/28 11:27:19;;;;;;;;;;;;;;;;;;5047027;28;1266;-58
2021/03/28 11:30:04;;;;;;;;;;;;;;;;;;5043292;28;1416;-58
2021/03/28 11:32:32;;;;;;;;;;;;;;;;;;5024905;28;1087;-59
2021/03/28 11:35:01;;;;;;;;;;;;;;;;;;5027196;28;1971;-59
2021/03/28 11:37:35;;;;;;;;;;;;;;;;;;5014571;28;681;-59
2021/03/28 11:40:07;;;;;;;;;;;;;;;;;;5013076;28;855;-61
2021/03/28 11:42:32;;;;;;;;;;;;;;;;;;5026205;28;859;-61
2021/03/28 11:45:01;;;;;;;;;;;;;;;;;;5011021;28;856;-60
2021/03/28 11:47:34;;;;;;;;;;;;;;;;;;5009898;28;871;-58
2021/03/28 11:49:59;;;;;;;;;;;;;;;;;;5010050;28;831;-60
2021/03/28 11:52:27;;;;;;;;;;;;;;;;;;5010627;28;832;-61
2021/03/28 11:55:05;;;;;;;;;;;;;;;;;;5028244;28;1894;-60
2021/03/28 11:57:32;;;;;;;;;;;;;;;;;;5034744;28;1164;-61
2021/03/28 12:00:11;;;;;;;;;;;;;;;;;;5042205;28;1376;-59
2021/03/28 12:02:37;;;;;;;;;;;;;;;;;;5035199;28;1167;-59
2021/03/28 12:05:09;;;;;;;;;;;;;;;;;;5041061;28;1254;-61
2021/03/28 12:07:42;;;;;;;;;;;;;;;;;;5049681;28;958;-61
2021/03/28 12:10:08;;;;;;;;;;;;;;;;;;5046786;28;1147;-62
2021/03/28 12:12:44;;;;;;;;;;;;;;;;;;5046815;28;1057;-60
2021/03/28 12:15:28;;;;;;;;;;;;;;;;;;5045059;28;1909;-58
2021/03/28 12:18:17;;;;;;;;;;;;;;;;;;5045101;28;1099;-60
2021/03/28 12:20:43;;;;;;;;;;;;;;;;;;5026161;28;1350;-62
2021/03/28 12:23:22;;;;;;;;;;;;;;;;;;5030655;28;1058;-67
2021/03/28 12:26:03;;;;;;;;;;;;;;;;;;5037835;28;1360;-59
2021/03/28 12:28:47;;;;;;;;;;;;;;;;;;5035966;28;1354;-64
2021/03/28 12:31:31;;;;;;;;;;;;;;;;;;5028773;28;1348;-65
2021/03/28 12:34:14;;;;;;;;;;;;;;;;;;5033308;28;1409;-65
2021/03/28 12:36:55;;;;;;;;;;;;;;;;;;5022596;28;2058;-64
2021/03/28 12:39:26;;;;;;;;;;;;;;;;;;5022566;28;1365;-58
2021/03/28 12:42:05;;;;;;;;;;;;;;;;;;5025384;28;1500;-61
2021/03/28 12:44:34;;;;;;;;;;;;;;;;;;5024232;28;1326;-61
2021/03/28 12:47:07;;;;;;;;;;;;;;;;;;5025659;28;1282;-62
2021/03/28 12:49:55;;;;;;;;;;;;;;;;;;5026649;28;1401;-60
2021/03/28 12:52:49;;;;;;;;;;;;;;;;;;5023048;28;1660;-60
2021/03/28 12:55:33;;;;;;;;;;;;;;;;;;5003429;28;1889;-59
2021/03/28 12:58:08;;;;;;;;;;;;;;;;;;5019025;28;1413;-63
2021/03/28 13:00:39;;;;;;;;;;;;;;;;;;5017174;28;1289;-63
2021/03/28 13:03:19;;;;;;;;;;;;;;;;;;5024300;28;1362;-60
2021/03/28 13:06:11;;;;;;;;;;;;;;;;;;5023368;28;1417;-62
2021/03/28 13:08:42;;;;;;;;;;;;;;;;;;5019094;28;1397;-60
2021/03/28 13:11:08;;;;;;;;;;;;;;;;;;5019280;28;1326;-64
2021/03/28 13:14:00;;;;;;;;;;;;;;;;;;5020389;28;1325;-64
2021/03/28 13:16:27;;;;;;;;;;;;;;;;;;5019879;28;1975;-63
2021/03/28 13:18:53;;;;;;;;;;;;;;;;;;5020536;28;1357;-58
2021/03/28 13:21:24;;;;;;;;;;;;;;;;;;5020379;28;1266;-59
2021/03/28 13:23:50;;;;;;;;;;;;;;;;;;5018570;28;1577;-59
2021/03/28 13:26:34;;;;;;;;;;;;;;;;;;5026407;28;1270;-59
2021/03/28 13:29:16;;;;;;;;;;;;;;;;;;5027238;28;1218;-59
2021/03/28 13:31:52;;;;;;;;;;;;;;;;;;5028059;28;1222;-59
2021/03/28 13:34:27;;;;;;;;;;;;;;;;;;5026325;28;1902;-60
2021/03/28 13:37:05;;;;;;;;;;;;;;;;;;5028045;28;1301;-60
2021/03/28 13:39:34;;;;;;;;;;;;;;;;;;5027760;28;1336;-60
2021/03/28 13:42:02;;;;;;;;;;;;;;;;;;5027841;28;1269;-60
2021/03/28 13:44:33;;;;;;;;;;;;;;;;;;5027556;28;1335;-59
2021/03/28 13:47:03;;;;;;;;;;;;;;;;;;5025549;28;1767;-60
2021/03/28 13:49:29;;;;;;;;;;;;;;;;;;5028372;28;1341;-61
2021/03/28 13:52:09;;;;;;;;;;;;;;;;;;5034151;28;1132;-60
2021/03/28 13:54:34;;;;;;;;;;;;;;;;;;5034023;28;1902;-60
2021/03/28 13:57:02;;;;;;;;;;;;;;;;;;5033342;28;1146;-60
2021/03/28 13:59:29;;;;;;;;;;;;;;;;;;5039544;28;1147;-61
2021/03/28 14:02:04;;;;;;;;;;;;;;;;;;5037109;28;1199;-60
2021/03/28 14:04:43;;;;;;;;;;;;;;;;;;5030154;28;1289;-59
2021/03/28 14:07:09;;;;;;;;;;;;;;;;;;5036377;28;1134;-61
2021/03/28 14:09:36;;;;;;;;;;;;;;;;;;5034971;28;1221;-59
2021/03/28 14:12:06;;;;;;;;;;;;;;;;;;5032059;28;1239;-60
2021/03/28 14:14:31;;;;;;;;;;;;;;;;;;5033251;28;1992;-59
2021/03/28 14:16:59;;;;;;;;;;;;;;;;;;5030914;28;1155;-59
2021/03/28 14:19:32;;;;;;;;;;;;;;;;;;5026231;28;1222;-57
2021/03/28 14:22:10;;;;;;;;;;;;;;;;;;5026037;28;1593;-59
2021/03/28 14:24:35;;;;;;;;;;;;;;;;;;5028203;28;1195;-59
2021/03/28 14:27:07;;;;;;;;;;;;;;;;;;5036797;28;1172;-60
2021/03/28 14:29:39;;;;;;;;;;;;;;;;;;5036082;28;1250;-58
2021/03/28 14:32:19;;;;;;;;;;;;;;;;;;5034929;28;1145;-58
2021/03/28 14:35:03;;;;;;;;;;;;;;;;;;5016053;28;2389;-59
2021/03/28 14:37:49;;;;;;;;;;;;;;;;;;5024443;28;1103;-59
2021/03/28 14:40:33;;;;;;;;;;;;;;;;;;5026627;28;1901;-59
2021/03/28 14:43:01;;;;;;;;;;;;;;;;;;5024336;28;1366;-58
2021/03/28 14:45:32;;;;;;;;;;;;;;;;;;5036820;28;1648;-57
2021/03/28 14:48:06;;;;;;;;;;;;;;;;;;5021455;28;1190;-58
2021/03/28 14:50:52;;;;;;;;;;;;;;;;;;5021882;28;1501;-59
2021/03/28 14:53:26;;;;;;;;;;;;;;;;;;5010175;28;1092;-58
2021/03/28 14:55:57;;;;;;;;;;;;;;;;;;5010153;28;1886;-59
2021/03/28 14:58:26;;;;;;;;;;;;;;;;;;5022867;28;831;-58
2021/03/28 15:00:56;;;;;;;;;;;;;;;;;;5027968;28;1161;-58
2021/03/28 15:03:48;;;;;;;;;;;;;;;;;;5031856;28;1332;-58
2021/03/28 15:06:32;;;;;;;;;;;;;;;;;;5023809;28;1488;-58
2021/03/28 15:09:08;;;;;;;;;;;;;;;;;;5024330;28;1717;-58
2021/03/28 15:11:44;;;;;;;;;;;;;;;;;;5024169;28;1122;-60
2021/03/28 15:14:27;;;;;;;;;;;;;;;;;;5021792;28;1914;-58
2021/03/28 15:17:08;;;;;;;;;;;;;;;;;;5027871;28;1254;-58
2021/03/28 15:19:33;;;;;;;;;;;;;;;;;;5027578;28;1173;-60
2021/03/28 15:22:18;;;;;;;;;;;;;;;;;;5029672;28;1254;-60
2021/03/28 15:24:52;;;;;;;;;;;;;;;;;;5028411;28;1258;-62
2021/03/28 15:27:18;;;;;;;;;;;;;;;;;;5029797;28;1273;-61
2021/03/28 15:29:55;;;;;;;;;;;;;;;;;;5031102;28;1261;-60
2021/03/28 15:32:20;;;;;;;;;;;;;;;;;;5027430;28;1132;-61
2021/03/28 15:35:02;;;;;;;;;;;;;;;;;;5030137;28;1957;-59
2021/03/28 15:37:39;;;;;;;;;;;;;;;;;;5028426;28;1215;-59
2021/03/28 15:40:16;;;;;;;;;;;;;;;;;;5029673;28;1695;-59
2021/03/28 15:42:47;;;;;;;;;;;;;;;;;;5035695;28;1117;-60
2021/03/28 15:45:21;;;;;;;;;;;;;;;;;;5031651;28;1171;-62
2021/03/28 15:47:57;;;;;;;;;;;;;;;;;;5034931;28;1193;-61
2021/03/28 15:50:46;;;;;;;;;;;;;;;;;;5035902;28;1256;-60
2021/03/28 15:53:12;;;;;;;;;;;;;;;;;;5034238;28;1150;-60
2021/03/28 15:55:44;;;;;;;;;;;;;;;;;;5033263;28;1890;-60
2021/03/28 15:58:16;;;;;;;;;;;;;;;;;;5026407;28;1231;-61
2021/03/28 16:00:47;;;;;;;;;;;;;;;;;;5045124;28;862;-62
2021/03/28 16:03:31;;;;;;;;;;;;;;;;;;5049349;28;910;-61
2021/03/28 16:06:22;;;;;;;;;;;;;;;;;;5064919;28;961;-62
2021/03/28 16:09:06;;;;;;;;;;;;;;;;;;5044626;28;1420;-62
2021/03/28 16:11:41;;;;;;;;;;;;;;;;;;5029904;28;812;-62
2021/03/28 16:14:27;;;;;;;;;;;;;;;;;;5029454;28;760;-63
2021/03/28 16:16:59;;;;;;;;;;;;;;;;;;5029912;28;1162;-60
2021/03/28 16:19:24;;;;;;;;;;;;;;;;;;5029996;28;803;-61
2021/03/28 16:22:08;;;;;;;;;;;;;;;;;;5029408;28;1027;-60
2021/03/28 16:24:45;;;;;;;;;;;;;;;;;;5033560;28;1234;-60
2021/03/28 16:27:18;;;;;;;;;;;;;;;;;;5030085;28;1500;-61
2021/03/28 16:30:02;;;;;;;;;;;;;;;;;;5028873;28;719;-60
2021/03/28 16:32:34;;;;;;;;;;;;;;;;;;5028711;28;804;-61
2021/03/28 16:35:18;;;;;;;;;;;;;;;;;;5027881;28;1898;-60
2021/03/28 16:37:46;;;;;;;;;;;;;;;;;;5033616;28;1129;-61
2021/03/28 16:40:23;;;;;;;;;;;;;;;;;;5045703;28;1025;-62
2021/03/28 16:43:07;;;;;;;;;;;;;;;;;;5049038;28;893;-61
2021/03/28 16:45:38;;;;;;;;;;;;;;;;;;5048532;28;959;-61
2021/03/28 16:48:04;;;;;;;;;;;;;;;;;;5048924;28;898;-59
2021/03/28 16:50:32;;;;;;;;;;;;;;;;;;5049092;28;867;-62
2021/03/28 16:53:01;;;;;;;;;;;;;;;;;;5046421;28;1166;-63
2021/03/28 16:55:36;;;;;;;;;;;;;;;;;;5029001;28;1971;-63
2021/03/28 16:58:04;;;;;;;;;;;;;;;;;;5028215;28;1246;-61
2021/03/28 17:00:31;;;;;;;;;;;;;;;;;;5042812;28;831;-62
2021/03/28 17:03:17;;;;;;;;;;;;;;;;;;5048609;28;895;-61
2021/03/28 17:05:49;;;;;;;;;;;;;;;;;;5051003;28;1232;-62
2021/03/28 17:08:25;;;;;;;;;;;;;;;;;;5049833;28;824;-61
2021/03/28 17:10:54;;;;;;;;;;;;;;;;;;5048100;28;819;-59
2021/03/28 17:13:22;;;;;;;;;;;;;;;;;;5040875;28;1175;-61
2021/03/28 17:15:48;;;;;;;;;;;;;;;;;;5027884;28;1910;-62
2021/03/28 17:18:16;;;;;;;;;;;;;;;;;;5028157;28;1321;-61
2021/03/28 17:20:45;;;;;;;;;;;;;;;;;;5027122;28;1424;-60
2021/03/28 17:23:37;;;;;;;;;;;;;;;;;;5026712;28;1249;-61
2021/03/28 17:26:15;;;;;;;;;;;;;;;;;;5007618;28;1346;-61
2021/03/28 17:28:41;;;;;;;;;;;;;;;;;;5026232;28;1222;-60
2021/03/28 17:31:30;;;;;;;;;;;;;;;;;;5026868;28;1250;-60
2021/03/28 17:34:00;;;;;;;;;;;;;;;;;;5019643;28;1419;-60
2021/03/28 17:36:27;;;;;;;;;;;;;;;;;;5027936;28;1973;-60
2021/03/28 17:38:53;;;;;;;;;;;;;;;;;;5027872;28;1159;-60
2021/03/28 17:41:54;;;;;;;;;;;;;;;;;;5027446;28;1385;-60
2021/03/28 17:44:19;;;;;;;;;;;;;;;;;;5044311;28;1297;-61
2021/03/28 17:46:44;;;;;;;;;;;;;;;;;;5032329;28;992;-60
2021/03/28 17:49:29;;;;;;;;;;;;;;;;;;5028545;28;852;-59
2021/03/28 17:51:55;;;;;;;;;;;;;;;;;;5028066;28;1055;-60
2021/03/28 17:54:24;;;;;;;;;;;;;;;;;;5020502;28;1971;-61
2021/03/28 17:56:49;;;;;;;;;;;;;;;;;;5012442;28;1217;-60
2021/03/28 17:59:15;;;;;;;;;;;;;;;;;;5032295;28;1184;-60
2021/03/28 18:01:42;;;;;;;;;;;;;;;;;;5047550;28;883;-60
2021/03/28 18:04:21;;;;;;;;;;;;;;;;;;5029159;28;1183;-60
2021/03/28 18:06:48;;;;;;;;;;;;;;;;;;5048625;28;1214;-60
2021/03/28 18:09:19;;;;;;;;;;;;;;;;;;5039945;28;1677;-62
2021/03/28 18:11:46;;;;;;;;;;;;;;;;;;5045676;28;1068;-60